createdAt,value
2019-02-02T00:00:29.656Z,29.80
2019-02-02T00:02:58.712Z,31.53
2019-02-02T00:05:27.764Z,31.10
2019-02-02T00:07:56.830Z,29.73
2019-02-02T00:10:25.879Z,30.17
2019-02-02T00:12:54.935Z,30.53
2019-02-02T00:15:23.991Z,29.80
2019-02-02T00:17:53.048Z,33.50
2019-02-02T00:20:22.108Z,30.83
2019-02-02T00:22:51.166Z,29.20
2019-02-02T00:25:20.616Z,25.57
2019-02-02T00:27:49.672Z,32.67
2019-02-02T00:30:21.758Z,29.07
2019-02-02T00:32:50.816Z,29.50
2019-02-02T00:35:19.948Z,31.30
2019-02-02T00:37:49.007Z,30.00
2019-02-02T00:40:19.768Z,30.00
2019-02-02T00:42:48.822Z,28.63
2019-02-02T00:45:19.986Z,28.93
2019-02-02T00:47:49.046Z,29.10
2019-02-02T00:50:18.340Z,27.87
2019-02-02T00:52:47.398Z,32.57
2019-02-02T00:55:19.117Z,28.03
2019-02-02T00:57:53.536Z,29.43
2019-02-02T01:00:26.684Z,31.10
2019-02-02T01:02:58.693Z,29.93
2019-02-02T01:05:27.744Z,24.93
2019-02-02T01:07:56.796Z,30.57
2019-02-02T01:10:32.451Z,29.47
2019-02-02T01:13:01.508Z,28.40
2019-02-02T01:15:30.563Z,30.67
2019-02-02T01:17:59.621Z,31.90
2019-02-02T01:20:28.947Z,29.67
2019-02-02T01:22:58.000Z,31.83
2019-02-02T01:25:27.061Z,28.93
2019-02-02T01:28:04.863Z,28.83
2019-02-02T01:30:26.902Z,27.50
2019-02-02T01:32:55.959Z,31.37
2019-02-02T01:35:25.018Z,28.87
2019-02-02T01:37:54.077Z,32.13
2019-02-02T01:40:27.576Z,32.57
2019-02-02T01:42:56.902Z,29.87
2019-02-02T01:45:27.681Z,29.87
2019-02-02T01:47:56.812Z,32.13
2019-02-02T01:50:29.497Z,35.67
2019-02-02T01:52:58.562Z,35.10
2019-02-02T01:55:27.612Z,32.23
2019-02-02T01:57:56.668Z,29.83
2019-02-02T02:00:32.906Z,31.10
2019-02-02T02:03:01.966Z,33.57
2019-02-02T02:05:31.099Z,35.27
2019-02-02T02:08:00.494Z,34.20
2019-02-02T02:10:29.548Z,28.77
2019-02-02T02:12:58.688Z,30.27
2019-02-02T02:15:27.741Z,30.93
2019-02-02T02:17:56.797Z,34.30
2019-02-02T02:20:25.877Z,36.57
2019-02-02T02:22:54.932Z,32.90
2019-02-02T02:25:23.990Z,37.13
2019-02-02T02:27:53.044Z,34.40
2019-02-02T02:30:23.907Z,35.20
2019-02-02T02:32:53.615Z,35.77
2019-02-02T02:35:22.664Z,33.90
2019-02-02T02:37:51.723Z,38.03
2019-02-02T02:40:24.886Z,36.37
2019-02-02T02:42:54.108Z,38.10
2019-02-02T02:45:23.172Z,39.57
2019-02-02T02:47:52.224Z,34.20
2019-02-02T02:50:22.327Z,37.00
2019-02-02T02:52:51.381Z,34.23
2019-02-02T02:55:20.810Z,42.40
2019-02-02T02:57:49.876Z,40.17
2019-02-02T03:00:22.592Z,39.70
2019-02-02T03:02:51.646Z,34.33
2019-02-02T03:05:20.936Z,40.70
2019-02-02T03:07:51.995Z,38.47
2019-02-02T03:10:26.014Z,35.87
2019-02-02T03:12:55.337Z,41.00
2019-02-02T03:15:24.388Z,39.03
2019-02-02T03:17:53.719Z,38.07
2019-02-02T03:20:22.773Z,44.73
2019-02-02T03:22:52.269Z,40.13
2019-02-02T03:25:26.425Z,38.57
2019-02-02T03:27:55.480Z,42.27
2019-02-02T03:30:24.550Z,35.83
2019-02-02T03:32:53.870Z,38.03
2019-02-02T03:35:25.834Z,36.57
2019-02-02T03:37:54.888Z,41.37
2019-02-02T03:40:24.317Z,39.00
2019-02-02T03:42:53.370Z,39.77
2019-02-02T03:45:24.137Z,43.03
2019-02-02T03:47:54.493Z,39.60
2019-02-02T03:50:23.552Z,42.50
2019-02-02T03:52:52.601Z,45.27
2019-02-02T03:55:21.663Z,42.50
2019-02-02T03:57:50.726Z,43.77
2019-02-02T04:00:23.292Z,42.50
2019-02-02T04:02:52.348Z,43.13
2019-02-02T04:05:29.669Z,44.67
2019-02-02T04:07:58.802Z,40.50
2019-02-02T04:10:27.856Z,45.10
2019-02-02T04:12:56.923Z,47.10
2019-02-02T04:15:25.983Z,41.13
2019-02-02T04:17:55.041Z,46.50
2019-02-02T04:20:24.469Z,42.77
2019-02-02T04:22:53.876Z,47.10
2019-02-02T04:25:23.280Z,45.33
2019-02-02T04:27:52.358Z,50.27
2019-02-02T04:30:28.060Z,47.27
2019-02-02T04:32:57.044Z,42.63
2019-02-02T04:35:26.099Z,45.83
2019-02-02T04:37:55.159Z,48.10
2019-02-02T04:40:24.220Z,54.37
2019-02-02T04:42:53.278Z,50.00
2019-02-02T04:45:22.330Z,50.43
2019-02-02T04:47:51.384Z,47.83
2019-02-02T04:50:21.481Z,47.20
2019-02-02T04:52:50.743Z,51.43
2019-02-02T04:55:20.472Z,48.97
2019-02-02T04:57:49.532Z,47.73
2019-02-02T05:00:27.955Z,50.50
2019-02-02T05:02:57.020Z,49.13
2019-02-02T05:05:26.077Z,50.33
2019-02-02T05:07:55.127Z,48.63
2019-02-02T05:10:25.035Z,51.47
2019-02-02T05:12:54.088Z,50.80
2019-02-02T05:15:23.148Z,48.57
2019-02-02T05:17:52.200Z,43.47
2019-02-02T05:20:21.624Z,46.83
2019-02-02T05:22:50.699Z,46.37
2019-02-02T05:25:19.758Z,48.37
2019-02-02T05:27:49.283Z,52.10
2019-02-02T05:30:24.488Z,47.47
2019-02-02T05:32:53.548Z,53.03
2019-02-02T05:35:22.604Z,48.03
2019-02-02T05:37:51.666Z,51.47
2019-02-02T05:40:22.429Z,42.67
2019-02-02T05:42:51.490Z,48.40
2019-02-02T05:45:22.956Z,48.87
2019-02-02T05:47:52.015Z,50.37
2019-02-02T05:50:23.282Z,48.67
2019-02-02T05:52:52.711Z,44.43
2019-02-02T05:55:23.309Z,45.43
2019-02-02T05:57:52.363Z,43.20
2019-02-02T06:00:26.574Z,49.87
2019-02-02T06:02:55.631Z,53.50
2019-02-02T06:05:24.685Z,50.00
2019-02-02T06:07:53.738Z,51.27
2019-02-02T06:10:22.802Z,47.80
2019-02-02T06:12:51.856Z,51.93
2019-02-02T06:15:20.922Z,46.83
2019-02-02T06:17:49.977Z,49.37
2019-02-02T06:20:19.035Z,50.03
2019-02-02T06:22:48.202Z,48.47
2019-02-02T06:25:17.399Z,49.73
2019-02-02T06:27:46.456Z,49.00
2019-02-02T06:30:21.244Z,47.53
2019-02-02T06:32:50.302Z,45.87
2019-02-02T06:35:19.896Z,47.53
2019-02-02T06:37:48.951Z,48.67
2019-02-02T06:40:18.180Z,48.10
2019-02-02T06:42:47.296Z,51.53
2019-02-02T06:45:23.950Z,47.23
2019-02-02T06:47:53.006Z,48.17
2019-02-02T06:50:22.062Z,50.07
2019-02-02T06:52:51.115Z,51.43
2019-02-02T06:55:20.185Z,51.17
2019-02-02T06:57:49.229Z,43.43
2019-02-02T07:00:27.188Z,44.43
2019-02-02T07:02:56.317Z,54.20
2019-02-02T07:05:25.372Z,54.90
2019-02-02T07:07:54.431Z,49.77
2019-02-02T07:10:26.702Z,51.23
2019-02-02T07:12:55.751Z,44.17
2019-02-02T07:15:27.821Z,52.87
2019-02-02T07:17:56.881Z,48.30
2019-02-02T07:20:25.960Z,53.07
2019-02-02T07:22:55.086Z,45.07
2019-02-02T07:25:24.154Z,47.87
2019-02-02T07:27:53.203Z,47.60
2019-02-02T07:30:28.577Z,52.13
2019-02-02T07:32:55.254Z,49.97
2019-02-02T07:35:24.311Z,54.70
2019-02-02T07:37:53.365Z,51.87
2019-02-02T07:40:22.701Z,46.90
2019-02-02T07:42:51.753Z,53.80
2019-02-02T07:45:30.061Z,50.93
2019-02-02T07:47:59.124Z,47.33
2019-02-02T07:50:28.176Z,59.00
2019-02-02T07:52:57.237Z,51.10
2019-02-02T07:55:26.293Z,47.00
2019-02-02T07:57:55.352Z,50.90
2019-02-02T08:00:40.854Z,49.13
2019-02-02T08:03:05.195Z,48.90
2019-02-02T08:05:34.249Z,48.63
2019-02-02T08:08:03.308Z,53.17
2019-02-02T08:10:32.357Z,50.07
2019-02-02T08:13:01.414Z,48.30
2019-02-02T08:15:33.209Z,55.37
2019-02-02T08:18:02.270Z,50.53
2019-02-02T08:20:31.326Z,50.63
2019-02-02T08:23:00.382Z,53.50
2019-02-02T08:25:29.446Z,51.37
2019-02-02T08:27:58.498Z,47.10
2019-02-02T08:30:31.128Z,49.23
2019-02-02T08:33:00.185Z,51.37
2019-02-02T08:35:29.244Z,52.20
2019-02-02T08:37:58.303Z,66.63
2019-02-02T08:40:27.363Z,55.93
2019-02-02T08:42:56.426Z,54.77
2019-02-02T08:45:25.478Z,52.30
2019-02-02T08:47:54.533Z,51.93
2019-02-02T08:50:28.235Z,56.10
2019-02-02T08:52:57.289Z,53.77
2019-02-02T08:55:26.393Z,50.80
2019-02-02T08:57:55.506Z,51.00
2019-02-02T09:00:24.552Z,53.10
2019-02-02T09:02:53.608Z,52.00
2019-02-02T09:05:24.018Z,50.67
2019-02-02T09:07:53.073Z,51.17
2019-02-02T09:10:28.426Z,51.43
2019-02-02T09:12:59.000Z,52.87
2019-02-02T09:15:28.060Z,57.10
2019-02-02T09:17:57.116Z,57.03
2019-02-02T09:20:26.189Z,54.20
2019-02-02T09:23:04.019Z,52.70
2019-02-02T09:25:26.028Z,53.07
2019-02-02T09:27:55.085Z,56.97
2019-02-02T09:30:30.825Z,53.73
2019-02-02T09:32:59.885Z,51.17
2019-02-02T09:35:28.997Z,52.33
2019-02-02T09:37:58.051Z,51.73
2019-02-02T09:40:27.109Z,50.63
2019-02-02T09:42:56.175Z,54.73
2019-02-02T09:45:25.597Z,53.93
2019-02-02T09:47:54.663Z,52.90
2019-02-02T09:50:26.003Z,58.33
2019-02-02T09:52:55.076Z,49.87
2019-02-02T09:55:25.941Z,56.30
2019-02-02T09:57:59.433Z,52.10
2019-02-02T10:00:33.054Z,58.70
2019-02-02T10:03:02.107Z,48.10
2019-02-02T10:05:31.999Z,52.53
2019-02-02T10:08:01.051Z,50.17
2019-02-02T10:10:33.119Z,51.93
2019-02-02T10:13:02.173Z,59.57
2019-02-02T10:15:31.303Z,58.73
2019-02-02T10:18:00.358Z,53.37
2019-02-02T10:20:31.435Z,50.30
2019-02-02T10:23:01.714Z,54.83
2019-02-02T10:25:32.402Z,51.33
2019-02-02T10:28:01.599Z,55.73
2019-02-02T10:30:36.690Z,49.80
2019-02-02T10:33:06.369Z,51.90
2019-02-02T10:35:35.424Z,56.93
2019-02-02T10:38:05.018Z,52.73
2019-02-02T10:40:34.077Z,50.97
2019-02-02T10:43:03.133Z,53.40
2019-02-02T10:45:32.188Z,56.77
2019-02-02T10:48:01.243Z,52.07
2019-02-02T10:50:30.300Z,55.60
2019-02-02T10:52:59.615Z,51.20
2019-02-02T10:55:28.673Z,53.13
2019-02-02T10:57:57.729Z,53.30
2019-02-02T11:00:36.913Z,56.13
2019-02-02T11:03:05.968Z,55.27
2019-02-02T11:05:35.027Z,50.83
2019-02-02T11:08:04.313Z,53.37
2019-02-02T11:10:34.967Z,47.77
2019-02-02T11:13:04.030Z,49.93
2019-02-02T11:15:33.091Z,48.93
2019-02-02T11:18:02.152Z,53.03
2019-02-02T11:20:34.571Z,58.47
2019-02-02T11:23:03.689Z,48.90
2019-02-02T11:25:32.769Z,48.77
2019-02-02T11:28:02.075Z,49.87
2019-02-02T11:30:31.431Z,50.07
2019-02-02T11:33:00.432Z,55.10
2019-02-02T11:35:29.493Z,55.83
2019-02-02T11:37:58.682Z,54.40
2019-02-02T11:40:33.978Z,59.63
2019-02-02T11:43:03.402Z,57.90
2019-02-02T11:45:32.494Z,58.53
2019-02-02T11:48:01.624Z,51.00
2019-02-02T11:50:30.677Z,56.87
2019-02-02T11:52:59.816Z,51.70
2019-02-02T11:55:29.748Z,53.67
2019-02-02T11:57:58.804Z,58.10
2019-02-02T12:00:40.613Z,53.40
2019-02-02T12:03:09.667Z,52.33
2019-02-02T12:05:38.726Z,57.73
2019-02-02T12:08:07.778Z,58.50
2019-02-02T12:10:37.006Z,57.73
2019-02-02T12:13:06.062Z,58.37
2019-02-02T12:15:35.120Z,59.07
2019-02-02T12:18:05.117Z,56.33
2019-02-02T12:20:34.172Z,63.40
2019-02-02T12:23:03.297Z,58.13
2019-02-02T12:25:32.365Z,56.43
2019-02-02T12:28:01.429Z,60.60
2019-02-02T12:30:33.214Z,59.00
2019-02-02T12:33:03.313Z,66.43
2019-02-02T12:35:32.794Z,63.30
2019-02-02T12:38:01.857Z,59.70
2019-02-02T12:40:30.947Z,55.07
2019-02-02T12:43:00.009Z,55.03
2019-02-02T12:45:47.550Z,55.40
2019-02-02T12:48:16.608Z,63.43
2019-02-02T12:50:45.660Z,68.70
2019-02-02T12:53:14.732Z,66.17
2019-02-02T12:55:43.779Z,59.30
2019-02-02T12:58:12.846Z,54.90
2019-02-02T13:00:44.289Z,59.37
2019-02-02T13:03:12.702Z,57.33
2019-02-02T13:05:41.766Z,61.93
2019-02-02T13:08:10.833Z,57.00
2019-02-02T13:10:39.895Z,62.70
2019-02-02T13:13:08.955Z,61.93
2019-02-02T13:15:38.020Z,59.57
2019-02-02T13:18:07.073Z,61.23
2019-02-02T13:20:36.134Z,58.67
2019-02-02T13:23:05.198Z,60.50
2019-02-02T13:25:35.746Z,57.13
2019-02-02T13:28:04.817Z,56.50
2019-02-02T13:30:35.793Z,53.37
2019-02-02T13:33:05.304Z,53.73
2019-02-02T13:35:37.040Z,55.13
2019-02-02T13:38:06.097Z,53.90
2019-02-02T13:40:35.153Z,59.63
2019-02-02T13:43:04.386Z,56.60
2019-02-02T13:45:33.444Z,57.80
2019-02-02T13:48:02.509Z,57.60
2019-02-02T13:50:31.666Z,57.90
2019-02-02T13:53:00.709Z,60.03
2019-02-02T13:55:29.782Z,54.37
2019-02-02T13:57:58.838Z,58.03
2019-02-02T14:00:33.943Z,58.17
2019-02-02T14:03:03.878Z,59.30
2019-02-02T14:05:33.243Z,57.17
2019-02-02T14:08:02.302Z,57.40
2019-02-02T14:10:33.972Z,52.00
2019-02-02T14:13:03.036Z,54.20
2019-02-02T14:15:32.095Z,58.47
2019-02-02T14:18:01.155Z,58.60
2019-02-02T14:20:30.213Z,53.50
2019-02-02T14:22:59.282Z,52.97
2019-02-02T14:25:28.344Z,53.57
2019-02-02T14:27:57.399Z,57.17
2019-02-02T14:30:27.212Z,59.70
2019-02-02T14:32:56.278Z,56.47
2019-02-02T14:35:27.550Z,57.63
2019-02-02T14:37:57.089Z,54.17
2019-02-02T14:40:26.151Z,59.13
2019-02-02T14:42:55.217Z,56.33
2019-02-02T14:45:27.545Z,58.53
2019-02-02T14:47:56.609Z,56.70
2019-02-02T14:50:25.669Z,58.77
2019-02-02T14:52:55.015Z,53.33
2019-02-02T14:55:28.601Z,57.80
2019-02-02T14:57:57.672Z,58.50
2019-02-02T15:00:30.737Z,60.37
2019-02-02T15:03:03.066Z,58.57
2019-02-02T15:05:42.133Z,62.23
2019-02-02T15:08:01.369Z,60.20
2019-02-02T15:10:30.681Z,64.17
2019-02-02T15:12:59.745Z,67.73
2019-02-02T15:15:28.820Z,65.17
2019-02-02T15:17:57.878Z,64.80
2019-02-02T15:20:33.517Z,60.03
2019-02-02T15:23:02.585Z,62.80
2019-02-02T15:25:31.651Z,59.93
2019-02-02T15:28:00.713Z,62.93
2019-02-02T15:30:36.217Z,58.13
2019-02-02T15:33:06.286Z,62.83
2019-02-02T15:35:35.341Z,60.83
2019-02-02T15:38:04.405Z,63.10
2019-02-02T15:40:33.468Z,68.37
2019-02-02T15:43:02.541Z,63.53
2019-02-02T15:45:32.638Z,61.60
2019-02-02T15:48:01.766Z,65.67
2019-02-02T15:50:30.826Z,63.70
2019-02-02T15:53:03.450Z,68.60
2019-02-02T15:55:32.504Z,60.00
2019-02-02T15:58:01.579Z,59.83
2019-02-02T16:00:36.369Z,64.37
2019-02-02T16:03:06.034Z,64.13
2019-02-02T16:05:35.938Z,63.43
2019-02-02T16:08:09.906Z,60.97
2019-02-02T16:10:38.968Z,61.83
2019-02-02T16:13:08.026Z,70.30
2019-02-02T16:15:37.089Z,61.47
2019-02-02T16:18:06.155Z,63.83
2019-02-02T16:20:42.619Z,66.57
2019-02-02T16:23:11.773Z,56.77
2019-02-02T16:25:40.768Z,62.10
2019-02-02T16:28:09.828Z,65.80
2019-02-02T16:30:38.890Z,64.07
2019-02-02T16:33:07.949Z,54.93
2019-02-02T16:35:37.014Z,62.47
2019-02-02T16:38:06.252Z,58.80
2019-02-02T16:40:35.310Z,65.97
2019-02-02T16:43:04.441Z,60.40
2019-02-02T16:45:34.837Z,61.03
2019-02-02T16:48:04.718Z,56.73
2019-02-02T16:50:33.773Z,57.40
2019-02-02T16:53:02.837Z,56.20
2019-02-02T16:55:31.898Z,62.77
2019-02-02T16:58:00.980Z,55.30
2019-02-02T17:00:33.023Z,53.60
2019-02-02T17:03:02.080Z,60.03
2019-02-02T17:05:31.144Z,52.87
2019-02-02T17:08:00.200Z,51.50
2019-02-02T17:10:34.589Z,57.40
2019-02-02T17:13:03.720Z,58.10
2019-02-02T17:15:32.786Z,61.53
2019-02-02T17:18:01.852Z,63.47
2019-02-02T17:20:37.649Z,67.37
2019-02-02T17:23:06.974Z,71.97
2019-02-02T17:25:36.035Z,66.27
2019-02-02T17:28:05.806Z,69.20
2019-02-02T17:30:34.866Z,72.07
2019-02-02T17:33:07.643Z,69.93
2019-02-02T17:35:36.739Z,90.50
2019-02-02T17:38:05.802Z,78.87
2019-02-02T17:40:34.863Z,74.50
2019-02-02T17:43:04.981Z,74.63
2019-02-02T17:45:34.046Z,80.00
2019-02-02T17:48:03.124Z,74.23
2019-02-02T17:50:32.179Z,84.30
2019-02-02T17:53:01.240Z,74.17
2019-02-02T17:55:30.312Z,84.27
2019-02-02T17:57:59.372Z,84.37
2019-02-02T18:00:36.556Z,82.03
2019-02-02T18:03:06.253Z,80.70
2019-02-02T18:05:35.323Z,81.07
2019-02-02T18:08:04.655Z,86.67
2019-02-02T18:10:34.036Z,127.97
2019-02-02T18:13:03.129Z,97.83
2019-02-02T18:15:32.190Z,97.00
2019-02-02T18:18:02.540Z,77.57
2019-02-02T18:20:31.795Z,153.33
2019-02-02T18:23:00.853Z,97.63
2019-02-02T18:25:29.911Z,89.53
2019-02-02T18:27:58.988Z,75.87
2019-02-02T18:30:28.988Z,79.73
2019-02-02T18:32:58.058Z,75.57
2019-02-02T18:35:27.191Z,72.37
2019-02-02T18:37:56.253Z,64.70
2019-02-02T18:40:26.161Z,67.20
2019-02-02T18:42:55.221Z,69.47
2019-02-02T18:45:30.047Z,74.97
2019-02-02T18:47:59.122Z,82.60
2019-02-02T18:50:28.182Z,72.50
2019-02-02T18:52:59.562Z,74.47
2019-02-02T18:55:45.062Z,78.07
2019-02-02T18:58:14.122Z,77.27
2019-02-02T19:00:43.181Z,66.93
2019-02-02T19:03:12.242Z,70.97
2019-02-02T19:05:41.303Z,65.07
2019-02-02T19:08:10.362Z,74.63
2019-02-02T19:10:42.137Z,71.77
2019-02-02T19:13:11.195Z,74.23
2019-02-02T19:15:40.253Z,89.17
2019-02-02T19:18:09.322Z,73.23
2019-02-02T19:20:38.380Z,81.13
2019-02-02T19:23:07.442Z,72.03
2019-02-02T19:25:36.804Z,69.43
2019-02-02T19:28:06.673Z,63.03
2019-02-02T19:30:36.576Z,71.67
2019-02-02T19:33:05.697Z,73.13
2019-02-02T19:35:34.760Z,74.20
2019-02-02T19:38:03.821Z,77.27
2019-02-02T19:40:32.887Z,70.63
2019-02-02T19:43:01.949Z,67.97
2019-02-02T19:45:31.006Z,64.50
2019-02-02T19:48:00.065Z,79.50
2019-02-02T19:50:29.897Z,78.37
2019-02-02T19:52:58.961Z,80.33
2019-02-02T19:55:28.021Z,65.13
2019-02-02T19:57:57.084Z,72.23
2019-02-02T20:00:32.458Z,66.57
2019-02-02T20:03:02.531Z,71.80
2019-02-02T20:05:31.594Z,74.63
2019-02-02T20:08:00.727Z,78.60
2019-02-02T20:10:29.786Z,76.30
2019-02-02T20:12:58.849Z,76.50
2019-02-02T20:15:30.813Z,73.97
2019-02-02T20:18:09.546Z,77.23
2019-02-02T20:20:30.661Z,75.53
2019-02-02T20:22:59.722Z,72.97
2019-02-02T20:25:28.786Z,71.97
2019-02-02T20:27:57.911Z,69.73
2019-02-02T20:30:32.366Z,75.20
2019-02-02T20:33:01.442Z,84.03
2019-02-02T20:35:40.183Z,84.43
2019-02-02T20:38:01.306Z,77.17
2019-02-02T20:40:30.365Z,76.23
2019-02-02T20:42:59.558Z,84.67
2019-02-02T20:45:38.224Z,83.83
2019-02-02T20:48:07.294Z,82.40
2019-02-02T20:50:36.358Z,79.77
2019-02-02T20:53:05.416Z,77.67
2019-02-02T20:55:39.123Z,80.67
2019-02-02T20:58:08.198Z,81.63
2019-02-02T21:00:37.293Z,72.63
2019-02-02T21:03:06.531Z,74.87
2019-02-02T21:05:36.344Z,77.87
2019-02-02T21:08:05.696Z,80.80
2019-02-02T21:10:34.753Z,82.30
2019-02-02T21:13:03.881Z,78.70
2019-02-02T21:15:32.941Z,77.17
2019-02-02T21:18:02.002Z,81.17
2019-02-02T21:20:31.530Z,80.13
2019-02-02T21:23:00.589Z,86.37
2019-02-02T21:25:29.660Z,84.30
2019-02-02T21:27:58.718Z,85.07
2019-02-02T21:30:30.988Z,78.43
2019-02-02T21:33:00.046Z,77.57
2019-02-02T21:35:29.250Z,81.50
2019-02-02T21:37:58.310Z,75.70
2019-02-02T21:40:30.373Z,79.37
2019-02-02T21:42:59.438Z,76.10
2019-02-02T21:45:28.527Z,80.77
2019-02-02T21:47:57.584Z,83.67
2019-02-02T21:50:26.784Z,84.37
2019-02-02T21:52:55.914Z,77.77
2019-02-02T21:55:27.884Z,76.40
2019-02-02T21:57:56.945Z,76.73
2019-02-02T22:00:38.496Z,79.30
2019-02-02T22:03:07.731Z,77.53
2019-02-02T22:05:36.790Z,78.70
2019-02-02T22:08:07.293Z,86.77
2019-02-02T22:10:36.348Z,84.20
2019-02-02T22:13:05.663Z,81.27
2019-02-02T22:15:34.725Z,82.03
2019-02-02T22:18:03.777Z,80.50
2019-02-02T22:20:32.840Z,82.43
2019-02-02T22:23:01.905Z,84.33
2019-02-02T22:25:32.976Z,82.37
2019-02-02T22:28:02.040Z,77.87
2019-02-02T22:30:34.209Z,85.80
2019-02-02T22:33:03.269Z,77.13
2019-02-02T22:35:32.331Z,83.60
2019-02-02T22:38:01.393Z,78.63
2019-02-02T22:40:30.452Z,82.23
2019-02-02T22:42:59.519Z,80.23
2019-02-02T22:45:28.579Z,78.37
2019-02-02T22:47:57.638Z,85.07
2019-02-02T22:50:28.208Z,84.80
2019-02-02T22:52:57.272Z,78.63
2019-02-02T22:55:26.336Z,72.43
2019-02-02T22:57:55.674Z,84.50
2019-02-02T23:00:52.312Z,74.10
2019-02-02T23:03:48.945Z,78.67
2019-02-02T23:06:55.363Z,76.63
2019-02-02T23:10:06.909Z,78.10
2019-02-02T23:12:49.493Z,66.43
2019-02-02T23:15:23.437Z,71.07
2019-02-02T23:17:52.499Z,74.07
2019-02-02T23:20:21.561Z,75.73
2019-02-02T23:22:50.789Z,69.27
2019-02-02T23:25:19.854Z,68.53
2019-02-02T23:27:48.914Z,70.77
2019-02-02T23:30:18.223Z,70.80
2019-02-02T23:32:47.281Z,71.50
2019-02-02T23:35:16.343Z,68.00
2019-02-02T23:37:45.409Z,69.90
2019-02-02T23:40:14.542Z,66.43
2019-02-02T23:42:43.600Z,74.27
2019-02-02T23:45:12.661Z,69.47
2019-02-02T23:47:41.726Z,70.70
2019-02-02T23:50:11.295Z,65.63
2019-02-02T23:52:40.292Z,63.93
2019-02-02T23:55:10.497Z,68.27
2019-02-02T23:57:39.730Z,59.47
